Time;durP1;ratioP1;P1;durP2;ratioP2;P2;SDS_P1;SDS_P2;PMS_P1;PMS_P2;Temp;Humidity;BMP_temperature;BMP_pressure;BME280_temperature;BME280_humidity;BME280_pressure;Samples;Min_cycle;Max_cycle;Signal;HPM_P1;HPM_P2
2022/03/26 00:00:21;;;;;;;162.23;86.03;;;5.20;99.90;;;;;;5066811;28;20378;-33
2022/03/26 00:02:47;;;;;;;167.60;85.90;;;5.20;99.90;;;;;;5067699;28;20466;-34
2022/03/26 00:05:13;;;;;;;168.27;87.10;;;5.20;99.90;;;;;;5068445;28;20044;-33
2022/03/26 00:07:39;;;;;;;175.50;88.80;;;5.20;99.90;;;;;;5051633;28;20086;-33
2022/03/26 00:10:06;;;;;;;179.77;91.37;;;5.20;99.90;;;;;;5069935;28;20402;-32
2022/03/26 00:12:32;;;;;;;188.47;92.73;;;5.20;99.90;;;;;;5065740;28;20165;-35
2022/03/26 00:14:58;;;;;;;200.30;99.07;;;5.20;99.90;;;;;;5069495;28;20037;-33
2022/03/26 00:17:25;;;;;;;198.00;99.10;;;5.20;99.90;;;;;;5049981;28;20278;-32
2022/03/26 00:19:51;;;;;;;196.70;101.77;;;5.20;99.90;;;;;;5067411;28;20205;-35
2022/03/26 00:22:17;;;;;;;192.10;98.23;;;5.20;99.90;;;;;;5065897;28;20096;-31
2022/03/26 00:24:42;;;;;;;196.37;98.67;;;5.20;99.90;;;;;;5068138;28;20068;-34
2022/03/26 00:27:08;;;;;;;198.63;97.13;;;5.20;99.90;;;;;;5045177;28;20037;-31
2022/03/26 00:29:34;;;;;;;198.47;100.43;;;5.10;99.90;;;;;;5068426;28;20040;-35
2022/03/26 00:31:59;;;;;;;184.03;95.97;;;5.10;99.90;;;;;;5064621;28;20041;-34
2022/03/26 00:34:25;;;;;;;175.87;90.60;;;5.20;99.90;;;;;;5067208;28;20083;-33
2022/03/26 00:36:51;;;;;;;189.10;96.10;;;5.10;99.90;;;;;;5052792;28;20053;-32
2022/03/26 00:39:16;;;;;;;198.70;98.27;;;5.10;99.90;;;;;;5068484;28;20048;-32
2022/03/26 00:41:42;;;;;;;189.83;97.60;;;5.10;99.90;;;;;;5065985;28;20044;-31
2022/03/26 00:44:08;;;;;;;196.87;97.90;;;5.00;99.90;;;;;;5067748;28;20033;-33
2022/03/26 00:46:33;;;;;;;192.87;99.43;;;5.00;99.90;;;;;;5054764;28;20487;-33
2022/03/26 00:48:59;;;;;;;198.70;103.17;;;5.00;99.90;;;;;;5046164;28;20403;-34
2022/03/26 00:51:26;;;;;;;208.47;104.23;;;5.00;99.90;;;;;;5062553;28;20648;-35
2022/03/26 00:53:51;;;;;;;200.70;102.83;;;5.00;99.90;;;;;;5067474;28;20168;-34
2022/03/26 00:56:17;;;;;;;202.30;101.20;;;4.90;99.90;;;;;;5051993;28;20576;-35
2022/03/26 00:58:43;;;;;;;196.97;99.80;;;4.90;99.90;;;;;;5062601;28;20040;-33
2022/03/26 01:01:11;;;;;;;199.30;104.63;;;4.90;99.90;;;;;;5068000;28;20052;-35
2022/03/26 01:03:37;;;;;;;206.43;104.93;;;5.00;99.90;;;;;;5065535;28;20055;-32
2022/03/26 01:06:03;;;;;;;202.93;103.90;;;4.90;99.90;;;;;;5065831;28;20040;-34
2022/03/26 01:08:29;;;;;;;206.37;106.57;;;4.80;99.90;;;;;;5050994;28;20052;-32
2022/03/26 01:10:55;;;;;;;197.83;105.83;;;4.80;99.90;;;;;;5066667;28;20060;-34
2022/03/26 01:13:25;;;;;;;209.43;105.07;;;4.80;99.90;;;;;;5064641;28;20491;-33
2022/03/26 01:15:52;;;;;;;208.67;103.63;;;4.80;99.90;;;;;;5068290;28;20055;-32
2022/03/26 01:18:17;;;;;;;210.50;104.50;;;4.80;99.90;;;;;;5051482;28;20260;-34
2022/03/26 01:20:43;;;;;;;209.60;104.90;;;4.70;99.90;;;;;;5066431;28;20599;-33
2022/03/26 01:23:10;;;;;;;210.23;104.93;;;4.70;99.90;;;;;;5065961;28;20079;-35
2022/03/26 01:25:37;;;;;;;186.37;95.97;;;4.70;99.90;;;;;;5067340;28;20052;-34
2022/03/26 01:28:03;;;;;;;196.13;99.33;;;4.70;99.90;;;;;;5050858;28;20047;-33
2022/03/26 01:30:28;;;;;;;201.20;101.07;;;4.70;99.90;;;;;;5068411;28;20052;-32
2022/03/26 01:32:55;;;;;;;175.47;88.03;;;4.70;99.90;;;;;;5065517;28;20052;-33
2022/03/26 01:35:21;;;;;;;173.40;88.40;;;4.60;99.90;;;;;;5067900;28;20068;-33
2022/03/26 01:37:47;;;;;;;186.33;95.27;;;4.50;99.90;;;;;;5051165;28;20048;-34
2022/03/26 01:40:13;;;;;;;179.73;92.17;;;4.50;99.90;;;;;;5067829;28;20041;-34
2022/03/26 01:42:40;;;;;;;159.00;79.80;;;4.50;99.90;;;;;;5061261;28;20537;-35
2022/03/26 01:45:11;;;;;;;178.00;92.67;;;4.50;99.90;;;;;;5067503;28;20440;-32
2022/03/26 01:47:36;;;;;;;156.90;76.75;;;4.50;99.90;;;;;;5047447;28;20055;-34
2022/03/26 01:50:03;;;;;;;219.57;110.03;;;4.50;99.90;;;;;;5067152;28;20048;-32
2022/03/26 01:52:29;;;;;;;201.60;98.43;;;4.50;99.90;;;;;;5064504;28;20045;-34
2022/03/26 01:54:54;;;;;;;204.17;103.93;;;4.40;99.90;;;;;;5064012;28;20052;-35
2022/03/26 01:57:20;;;;;;;206.87;106.67;;;4.40;99.90;;;;;;5048637;28;20045;-33
2022/03/26 01:59:46;;;;;;;208.10;106.67;;;4.40;99.90;;;;;;5063721;28;20057;-33
2022/03/26 02:02:11;;;;;;;211.20;105.07;;;4.40;99.90;;;;;;5066178;28;20162;-33
2022/03/26 02:04:37;;;;;;;197.47;102.77;;;4.40;99.90;;;;;;5065693;28;20040;-33
2022/03/26 02:07:04;;;;;;;207.67;104.97;;;4.50;99.90;;;;;;5050766;28;20100;-35
2022/03/26 02:09:35;;;;;;;208.77;104.63;;;4.40;99.90;;;;;;5066352;28;20047;-33
2022/03/26 02:12:22;;;;;;;190.32;98.13;;;4.40;99.90;;;;;;5065391;28;20050;-35
2022/03/26 02:14:48;;;;;;;189.53;97.17;;;4.40;99.90;;;;;;5065804;28;20427;-32
2022/03/26 02:17:13;;;;;;;186.63;94.80;;;4.40;99.90;;;;;;5051199;28;20044;-35
2022/03/26 02:19:39;;;;;;;184.73;94.50;;;4.40;99.90;;;;;;5066379;28;20087;-32
2022/03/26 02:22:05;;;;;;;176.37;90.77;;;4.30;99.90;;;;;;5065446;28;20045;-32
2022/03/26 02:24:33;;;;;;;191.17;95.27;;;4.30;99.90;;;;;;5065032;28;20044;-32
2022/03/26 02:26:58;;;;;;;168.10;88.10;;;4.30;99.90;;;;;;5048019;28;20070;-34
2022/03/26 02:29:25;;;;;;;160.97;88.30;;;4.30;99.90;;;;;;5065425;28;20364;-35
2022/03/26 02:31:51;;;;;;;167.60;86.73;;;4.30;99.90;;;;;;5066068;28;20044;-31
2022/03/26 02:34:16;;;;;;;177.83;93.23;;;4.20;99.90;;;;;;5065258;28;20047;-32
2022/03/26 02:36:42;;;;;;;166.37;90.57;;;4.20;99.90;;;;;;5053277;28;20124;-31
2022/03/26 02:39:08;;;;;;;165.57;87.03;;;4.20;99.90;;;;;;5064691;28;20415;-32
2022/03/26 02:41:34;;;;;;;171.80;87.63;;;4.10;99.90;;;;;;5064581;28;20060;-34
2022/03/26 02:44:01;;;;;;;164.03;85.57;;;4.10;99.90;;;;;;5062363;28;20455;-33
2022/03/26 02:46:26;;;;;;;154.23;82.63;;;4.10;99.90;;;;;;5053113;28;20514;-32
2022/03/26 02:48:52;;;;;;;159.90;85.50;;;4.00;99.90;;;;;;5061498;28;20511;-31
2022/03/26 02:51:17;;;;;;;159.27;82.93;;;4.10;99.90;;;;;;5061115;28;20044;-33
2022/03/26 02:53:43;;;;;;;183.30;92.27;;;4.10;99.90;;;;;;5064709;28;20098;-31
2022/03/26 02:56:09;;;;;;;198.13;96.83;;;4.10;99.90;;;;;;5057225;28;20058;-34
2022/03/26 02:58:35;;;;;;;235.77;111.77;;;4.20;99.90;;;;;;5057350;28;20036;-34
2022/03/26 03:01:01;;;;;;;234.40;112.70;;;4.10;99.90;;;;;;5065062;28;20037;-34
2022/03/26 03:03:26;;;;;;;252.07;116.67;;;4.10;99.90;;;;;;5062401;28;20545;-32
2022/03/26 03:05:52;;;;;;;242.50;117.93;;;4.10;99.90;;;;;;5070350;28;20049;-35
2022/03/26 03:08:18;;;;;;;234.80;112.50;;;4.20;99.90;;;;;;5053830;28;20462;-32
2022/03/26 03:10:44;;;;;;;224.83;110.20;;;4.20;99.90;;;;;;5068284;28;20065;-33
2022/03/26 03:13:11;;;;;;;212.03;105.83;;;4.20;99.90;;;;;;5069030;28;20044;-32
2022/03/26 03:15:37;;;;;;;223.97;110.23;;;4.20;99.90;;;;;;5069869;28;20522;-33
2022/03/26 03:18:03;;;;;;;231.40;112.07;;;4.20;99.90;;;;;;5049817;28;20136;-34
2022/03/26 03:20:29;;;;;;;230.60;111.70;;;4.20;99.90;;;;;;5069785;28;20131;-30
2022/03/26 03:22:57;;;;;;;236.23;112.30;;;4.20;99.90;;;;;;5069027;28;20567;-31
2022/03/26 03:25:25;;;;;;;224.03;110.07;;;4.20;99.90;;;;;;5067887;28;20052;-31
2022/03/26 03:27:51;;;;;;;220.03;110.40;;;4.20;99.90;;;;;;5053847;28;20045;-34
2022/03/26 03:30:17;;;;;;;218.90;109.77;;;4.20;99.90;;;;;;5070078;28;20127;-31
2022/03/26 03:32:44;;;;;;;219.87;111.00;;;4.20;99.90;;;;;;5067678;28;20044;-34
2022/03/26 03:35:10;;;;;;;223.57;108.63;;;4.20;99.90;;;;;;5069365;28;20215;-31
2022/03/26 03:37:38;;;;;;;199.33;100.27;;;4.20;99.90;;;;;;5054569;28;20036;-35
2022/03/26 03:40:05;;;;;;;189.00;97.60;;;4.20;99.90;;;;;;5068350;28;20064;-34
2022/03/26 03:42:31;;;;;;;195.30;98.27;;;4.10;99.90;;;;;;5068131;28;20048;-31
2022/03/26 03:44:57;;;;;;;188.53;95.50;;;4.20;99.90;;;;;;5069471;28;20040;-33
2022/03/26 03:47:23;;;;;;;192.80;97.43;;;4.10;99.90;;;;;;5053601;28;20467;-31
2022/03/26 03:49:49;;;;;;;192.27;98.70;;;4.00;99.90;;;;;;5069083;28;20337;-34
2022/03/26 03:52:15;;;;;;;190.17;95.13;;;4.00;99.90;;;;;;5065701;28;20053;-33
2022/03/26 03:54:40;;;;;;;182.47;94.10;;;4.00;99.90;;;;;;5069409;28;20403;-35
2022/03/26 03:57:06;;;;;;;181.63;91.80;;;4.00;99.90;;;;;;5052030;28;20055;-32
2022/03/26 03:59:32;;;;;;;176.33;92.03;;;4.00;99.90;;;;;;5067673;28;20033;-33
2022/03/26 04:01:57;;;;;;;198.13;101.70;;;3.90;99.90;;;;;;5065433;28;20123;-34
2022/03/26 04:04:23;;;;;;;211.67;105.10;;;3.90;99.90;;;;;;5064244;28;20449;-33
2022/03/26 04:06:48;;;;;;;214.30;105.47;;;3.90;99.90;;;;;;5052692;28;20044;-32
2022/03/26 04:09:14;;;;;;;220.87;107.23;;;3.90;99.90;;;;;;5068046;28;20128;-30
2022/03/26 04:11:40;;;;;;;220.03;106.40;;;3.90;99.90;;;;;;5067432;28;20084;-31
2022/03/26 04:14:06;;;;;;;224.47;104.83;;;4.00;99.90;;;;;;5068288;28;20152;-34
2022/03/26 04:16:32;;;;;;;220.87;105.50;;;4.00;99.90;;;;;;5052367;28;20123;-34
2022/03/26 04:18:58;;;;;;;203.60;103.30;;;4.00;99.90;;;;;;5066680;28;20136;-31
2022/03/26 04:21:25;;;;;;;235.80;112.13;;;4.00;99.90;;;;;;5067602;28;20057;-30
2022/03/26 04:23:51;;;;;;;224.80;109.40;;;4.00;99.90;;;;;;5068458;28;20119;-33
2022/03/26 04:26:17;;;;;;;197.37;99.93;;;4.00;99.90;;;;;;5056046;28;20079;-31
2022/03/26 04:28:43;;;;;;;209.83;101.83;;;4.00;99.90;;;;;;5063418;28;20075;-33
2022/03/26 04:31:09;;;;;;;199.17;98.53;;;3.90;99.90;;;;;;5069010;28;20045;-32
2022/03/26 04:33:35;;;;;;;209.23;100.10;;;4.00;99.90;;;;;;5067316;28;20083;-33
2022/03/26 04:36:01;;;;;;;198.43;98.87;;;4.00;99.90;;;;;;5066826;28;20052;-35
2022/03/26 04:38:26;;;;;;;206.50;101.90;;;4.00;99.90;;;;;;5052453;28;20063;-34
2022/03/26 04:40:52;;;;;;;188.57;95.87;;;3.90;99.90;;;;;;5063947;28;20064;-32
2022/03/26 04:43:18;;;;;;;209.27;102.33;;;3.90;99.90;;;;;;5065760;28;20094;-35
2022/03/26 04:45:44;;;;;;;213.27;102.60;;;3.90;99.90;;;;;;5068557;28;20091;-31
2022/03/26 04:48:10;;;;;;;184.90;92.93;;;3.90;99.90;;;;;;5052496;28;20056;-32
2022/03/26 04:50:36;;;;;;;173.47;89.90;;;3.90;99.90;;;;;;5063163;28;20568;-33
2022/03/26 04:53:02;;;;;;;179.37;91.03;;;3.80;99.90;;;;;;5064611;28;20561;-34
2022/03/26 04:55:27;;;;;;;176.40;89.33;;;3.80;99.90;;;;;;5047918;28;20534;-32
2022/03/26 04:57:53;;;;;;;176.73;89.83;;;3.80;99.90;;;;;;5052190;28;20071;-32
2022/03/26 05:00:20;;;;;;;187.63;92.97;;;3.70;99.90;;;;;;5066821;28;21433;-33
2022/03/26 05:02:46;;;;;;;167.57;86.30;;;3.60;99.90;;;;;;5066885;28;20041;-32
2022/03/26 05:05:13;;;;;;;179.83;90.50;;;3.70;99.90;;;;;;5065912;28;20040;-34
2022/03/26 05:07:45;;;;;;;206.13;99.90;;;3.60;99.90;;;;;;5051667;28;20044;-31
2022/03/26 05:10:22;;;;;;;207.33;101.53;;;3.70;99.90;;;;;;5067577;28;20057;-35
2022/03/26 05:12:49;;;;;;;206.27;99.70;;;3.70;99.90;;;;;;5066237;28;20511;-34
2022/03/26 05:15:17;;;;;;;214.80;104.80;;;3.70;99.90;;;;;;5067659;28;20124;-31
2022/03/26 05:17:43;;;;;;;220.00;104.90;;;3.70;99.90;;;;;;5040096;28;20542;-35
2022/03/26 05:20:11;;;;;;;207.67;102.13;;;3.80;99.90;;;;;;5054920;28;20769;-33
2022/03/26 05:22:38;;;;;;;202.73;97.90;;;3.80;99.90;;;;;;5053254;28;20129;-35
2022/03/26 05:25:04;;;;;;;188.93;93.23;;;3.70;99.90;;;;;;5054488;28;20059;-31
2022/03/26 05:27:30;;;;;;;201.87;98.70;;;3.70;99.90;;;;;;5038817;28;20045;-34
2022/03/26 05:29:56;;;;;;;212.47;99.73;;;3.70;99.90;;;;;;5055833;28;20439;-32
2022/03/26 05:32:22;;;;;;;213.40;100.80;;;3.70;99.90;;;;;;5058507;28;20052;-32
2022/03/26 05:34:47;;;;;;;204.60;97.33;;;3.70;99.90;;;;;;5067338;28;20134;-32
2022/03/26 05:37:13;;;;;;;210.80;102.33;;;3.70;99.90;;;;;;5052247;28;20040;-33
2022/03/26 05:39:39;;;;;;;221.43;102.20;;;3.70;99.90;;;;;;5067520;28;20044;-35
2022/03/26 05:42:05;;;;;;;202.90;102.30;;;3.70;99.90;;;;;;5060402;28;20044;-33
2022/03/26 05:44:31;;;;;;;203.27;98.67;;;3.70;99.90;;;;;;5066652;28;20538;-31
2022/03/26 05:46:57;;;;;;;199.03;98.87;;;3.70;99.90;;;;;;5050977;28;20044;-31
2022/03/26 05:49:23;;;;;;;214.20;99.93;;;3.70;99.90;;;;;;5066211;28;20044;-34
2022/03/26 05:51:49;;;;;;;193.30;96.93;;;3.80;99.90;;;;;;5062808;28;20458;-32
2022/03/26 05:54:15;;;;;;;192.50;96.30;;;3.80;99.90;;;;;;5065091;28;20037;-34
2022/03/26 05:56:51;;;;;;;191.20;95.73;;;3.80;99.90;;;;;;5053412;28;20097;-33
2022/03/26 05:59:20;;;;;;;198.83;98.27;;;3.80;99.90;;;;;;5066156;28;20136;-35
2022/03/26 06:01:46;;;;;;;197.73;96.10;;;3.90;99.90;;;;;;5057364;28;20066;-32
2022/03/26 06:04:11;;;;;;;194.13;95.77;;;3.90;99.90;;;;;;5064728;28;20131;-31
2022/03/26 06:06:37;;;;;;;203.53;98.37;;;3.90;99.90;;;;;;5052715;28;20049;-32
2022/03/26 06:09:03;;;;;;;213.90;100.47;;;3.90;99.90;;;;;;5064813;28;20089;-32
2022/03/26 06:11:28;;;;;;;203.57;98.97;;;4.00;99.90;;;;;;5063372;28;20044;-33
2022/03/26 06:13:54;;;;;;;200.20;96.57;;;4.00;99.90;;;;;;5065508;28;20056;-32
2022/03/26 06:16:21;;;;;;;203.30;96.53;;;4.00;99.90;;;;;;5054245;28;20404;-33
2022/03/26 06:18:47;;;;;;;191.10;96.40;;;4.10;99.90;;;;;;5062532;28;20055;-35
2022/03/26 06:21:13;;;;;;;204.07;98.50;;;4.10;99.90;;;;;;5066240;28;20040;-32
2022/03/26 06:23:39;;;;;;;194.63;99.17;;;4.30;99.90;;;;;;5065355;28;20044;-33
2022/03/26 06:26:05;;;;;;;205.40;97.67;;;4.20;99.90;;;;;;5059149;28;20135;-32
2022/03/26 06:28:31;;;;;;;206.57;101.23;;;4.30;99.90;;;;;;5052207;28;20049;-33
2022/03/26 06:30:57;;;;;;;206.47;101.50;;;4.40;99.90;;;;;;5063817;28;20678;-32
2022/03/26 06:33:23;;;;;;;206.50;101.23;;;4.40;99.90;;;;;;5064724;28;20045;-33
2022/03/26 06:35:48;;;;;;;185.23;94.30;;;4.50;99.90;;;;;;5066272;28;20058;-34
2022/03/26 06:38:14;;;;;;;187.87;94.27;;;4.50;99.90;;;;;;5050115;28;20053;-33
2022/03/26 06:40:40;;;;;;;194.60;94.57;;;4.70;99.90;;;;;;5064713;28;20264;-33
2022/03/26 06:43:07;;;;;;;213.30;100.80;;;4.70;99.90;;;;;;5062833;28;20045;-34
2022/03/26 06:45:35;;;;;;;210.90;101.53;;;4.80;99.90;;;;;;5063860;28;20141;-31
2022/03/26 06:48:01;;;;;;;193.07;93.83;;;4.90;99.90;;;;;;5046808;28;20049;-34
2022/03/26 06:50:27;;;;;;;206.67;97.43;;;5.00;99.90;;;;;;5062503;28;20135;-30
2022/03/26 06:52:53;;;;;;;193.17;93.83;;;5.10;99.90;;;;;;5062168;28;20049;-31
2022/03/26 06:55:19;;;;;;;185.10;92.63;;;5.20;99.90;;;;;;5063819;28;20041;-34
2022/03/26 06:57:45;;;;;;;196.20;95.10;;;5.30;99.90;;;;;;5042912;28;20044;-33
2022/03/26 07:00:13;;;;;;;193.77;94.10;;;5.30;99.90;;;;;;5056387;28;20123;-33
2022/03/26 07:02:39;;;;;;;189.77;93.93;;;5.40;99.90;;;;;;5053109;28;20048;-34
2022/03/26 07:05:05;;;;;;;182.17;90.80;;;5.60;99.90;;;;;;5052848;28;20055;-32
2022/03/26 07:07:31;;;;;;;179.37;90.57;;;5.60;99.90;;;;;;5036553;28;20040;-33
2022/03/26 07:09:58;;;;;;;184.33;90.97;;;5.70;99.90;;;;;;5054447;28;20059;-35
2022/03/26 07:12:24;;;;;;;180.83;88.53;;;5.80;99.90;;;;;;5053965;28;20140;-33
2022/03/26 07:14:49;;;;;;;179.03;87.70;;;5.70;99.90;;;;;;5050798;28;20141;-34
2022/03/26 07:17:16;;;;;;;173.10;88.93;;;6.00;99.90;;;;;;5037532;28;20068;-32
2022/03/26 07:19:42;;;;;;;173.80;88.63;;;6.00;99.90;;;;;;5051246;28;20041;-33
2022/03/26 07:22:08;;;;;;;183.67;90.43;;;6.10;99.90;;;;;;5052571;28;21777;-36
2022/03/26 07:24:34;;;;;;;169.27;88.93;;;6.20;99.90;;;;;;5051852;28;20147;-35
2022/03/26 07:27:00;;;;;;;175.93;89.93;;;6.20;99.90;;;;;;5018938;28;20567;-33
2022/03/26 07:29:25;;;;;;;176.50;89.90;;;6.30;99.90;;;;;;5052991;28;20045;-33
2022/03/26 07:31:51;;;;;;;177.53;90.60;;;6.50;99.90;;;;;;5054510;28;20135;-35
2022/03/26 07:34:17;;;;;;;174.20;88.73;;;6.50;99.90;;;;;;5050784;28;20040;-34
2022/03/26 07:36:44;;;;;;;177.47;87.73;;;6.60;99.90;;;;;;5037325;28;20064;-34
2022/03/26 07:39:10;;;;;;;171.73;89.07;;;6.70;99.90;;;;;;5051694;28;20436;-33
2022/03/26 07:41:36;;;;;;;168.67;84.90;;;6.80;99.90;;;;;;5050775;28;20113;-36
2022/03/26 07:44:02;;;;;;;178.33;90.03;;;6.80;99.90;;;;;;5049661;28;20503;-33
2022/03/26 07:46:27;;;;;;;178.17;88.40;;;6.90;99.90;;;;;;5036808;28;20578;-32
2022/03/26 07:48:53;;;;;;;163.93;85.87;;;7.00;99.90;;;;;;5046319;28;20550;-37
2022/03/26 07:51:19;;;;;;;162.40;84.80;;;7.20;99.90;;;;;;5054882;28;20530;-33
2022/03/26 07:53:44;;;;;;;165.13;83.57;;;7.20;99.90;;;;;;5052180;28;20587;-33
2022/03/26 07:56:10;;;;;;;168.87;86.10;;;7.40;99.90;;;;;;5046549;28;20037;-32
2022/03/26 07:58:36;;;;;;;165.53;83.10;;;7.40;99.90;;;;;;5042967;28;20048;-34
2022/03/26 08:01:02;;;;;;;153.93;83.00;;;7.50;99.90;;;;;;5054654;28;20506;-32
2022/03/26 08:03:28;;;;;;;151.70;78.17;;;7.60;99.90;;;;;;5052581;28;20040;-35
2022/03/26 08:05:53;;;;;;;141.17;76.33;;;7.70;99.90;;;;;;5051266;28;20045;-35
2022/03/26 08:08:19;;;;;;;146.40;78.23;;;7.90;99.90;;;;;;5037232;28;20083;-36
2022/03/26 08:10:44;;;;;;;132.20;72.27;;;8.00;99.90;;;;;;5058356;28;20032;-32
2022/03/26 08:13:10;;;;;;;144.10;75.90;;;8.00;99.90;;;;;;5054181;28;20040;-35
2022/03/26 08:15:36;;;;;;;142.93;74.40;;;8.10;99.90;;;;;;5055696;28;20797;-35
2022/03/26 08:18:03;;;;;;;129.73;70.07;;;8.20;99.90;;;;;;5047973;28;20507;-36
2022/03/26 08:20:30;;;;;;;131.87;71.23;;;8.30;99.90;;;;;;5055448;28;20053;-37
2022/03/26 08:22:57;;;;;;;136.93;72.00;;;8.40;99.90;;;;;;5053282;28;20082;-35
2022/03/26 08:28:09;;;;;;;132.73;72.53;;;8.70;99.90;;;;;;5041954;28;20095;-33
2022/03/26 08:30:35;;;;;;;129.63;70.30;;;8.70;99.90;;;;;;5053731;28;20080;-35
2022/03/26 08:33:01;;;;;;;137.20;72.60;;;8.80;99.90;;;;;;5052625;28;20037;-35
2022/03/26 08:35:39;;;;;;;129.33;70.10;;;8.90;99.90;;;;;;5053211;28;20040;-34
2022/03/26 08:38:05;;;;;;;124.40;67.07;;;9.00;99.90;;;;;;5039074;28;20075;-34
2022/03/26 08:40:32;;;;;;;128.27;69.13;;;9.10;99.90;;;;;;5055209;28;20471;-35
2022/03/26 08:43:01;;;;;;;121.47;68.13;;;9.20;99.90;;;;;;5054266;28;20049;-33
2022/03/26 08:45:28;;;;;;;123.10;67.47;;;9.30;99.90;;;;;;5052423;28;20407;-37
2022/03/26 08:47:55;;;;;;;120.20;66.87;;;9.40;99.90;;;;;;5043078;28;20529;-37
2022/03/26 08:50:21;;;;;;;118.20;65.20;;;9.50;99.90;;;;;;5058468;28;20049;-35
2022/03/26 08:52:47;;;;;;;105.40;60.70;;;9.60;99.90;;;;;;5058618;28;20385;-35
2022/03/26 08:55:14;;;;;;;114.30;64.03;;;9.70;99.90;;;;;;5062374;28;20068;-33
2022/03/26 08:57:40;;;;;;;111.60;61.53;;;9.80;99.90;;;;;;5041408;28;20102;-37
2022/03/26 09:00:08;;;;;;;102.83;58.97;;;9.90;99.90;;;;;;5059561;28;20041;-37
2022/03/26 09:02:34;;;;;;;105.60;60.53;;;10.00;99.90;;;;;;5059395;28;20040;-34
2022/03/26 09:04:59;;;;;;;91.10;50.77;;;10.10;99.90;;;;;;5059339;28;20102;-34
2022/03/26 09:07:25;;;;;;;86.00;51.53;;;10.20;99.90;;;;;;5043122;28;20408;-36
2022/03/26 09:09:51;;;;;;;75.03;47.57;;;10.20;99.90;;;;;;5057279;28;20076;-37
2022/03/26 09:12:16;;;;;;;76.87;47.30;;;10.30;99.90;;;;;;5059936;28;20444;-34
2022/03/26 09:14:43;;;;;;;70.07;43.70;;;10.40;99.90;;;;;;5058474;28;20044;-36
2022/03/26 09:17:09;;;;;;;67.70;42.57;;;10.50;99.90;;;;;;5048708;28;20060;-34
2022/03/26 09:19:36;;;;;;;69.43;41.60;;;10.70;99.90;;;;;;5067047;28;20044;-33
2022/03/26 09:22:02;;;;;;;71.10;41.63;;;10.70;99.90;;;;;;5065541;28;20052;-34
2022/03/26 09:24:28;;;;;;;62.07;37.33;;;10.80;99.90;;;;;;5063829;28;20068;-34
2022/03/26 09:26:54;;;;;;;56.70;35.00;;;11.10;99.90;;;;;;5051475;28;20079;-34
2022/03/26 09:29:20;;;;;;;56.80;35.75;;;11.10;99.90;;;;;;5062559;28;20044;-35
2022/03/26 09:31:46;;;;;;;55.23;36.13;;;11.20;99.90;;;;;;5061335;28;20403;-37
2022/03/26 09:34:12;;;;;;;50.30;30.42;;;11.30;99.90;;;;;;5063917;28;20132;-34
2022/03/26 09:36:37;;;;;;;44.47;29.80;;;11.30;99.90;;;;;;5046238;28;20127;-37
2022/03/26 09:39:03;;;;;;;51.58;32.90;;;11.50;99.90;;;;;;5056612;28;20052;-36
2022/03/26 09:41:31;;;;;;;54.03;32.53;;;11.60;99.90;;;;;;5062322;28;20517;-37
2022/03/26 09:43:57;;;;;;;50.17;29.95;;;11.60;99.90;;;;;;5056067;28;20045;-35
2022/03/26 09:46:24;;;;;;;45.85;29.35;;;11.80;99.90;;;;;;5038324;28;20491;-37
2022/03/26 09:48:50;;;;;;;49.83;30.80;;;11.80;99.90;;;;;;5048723;28;20074;-34
2022/03/26 09:51:21;;;;;;;45.25;28.27;;;11.90;99.90;;;;;;5053311;28;20062;-36
2022/03/26 09:53:52;;;;;;;34.33;21.80;;;12.00;99.90;;;;;;5053090;28;20127;-37
2022/03/26 09:56:18;;;;;;;31.15;20.17;;;12.10;99.90;;;;;;5038823;28;20049;-36
2022/03/26 09:58:45;;;;;;;36.63;23.95;;;12.20;99.90;;;;;;5045968;28;20633;-37
2022/03/26 10:01:11;;;;;;;40.95;27.65;;;12.30;99.90;;;;;;5047379;28;20109;-37
2022/03/26 10:03:39;;;;;;;37.95;23.92;;;12.40;99.90;;;;;;5057298;28;20041;-33
2022/03/26 10:06:09;;;;;;;40.65;24.80;;;12.50;99.90;;;;;;5062487;28;20040;-36
2022/03/26 10:08:39;;;;;;;31.92;20.85;;;12.40;99.90;;;;;;5047830;28;20041;-33
2022/03/26 10:11:06;;;;;;;26.33;17.00;;;12.70;99.90;;;;;;5055583;28;20055;-33
2022/03/26 10:13:48;;;;;;;25.23;15.18;;;12.70;99.90;;;;;;5048989;28;20037;-35
2022/03/26 10:16:15;;;;;;;27.70;15.70;;;12.80;99.90;;;;;;5049400;28;20151;-36
2022/03/26 10:18:43;;;;;;;25.30;15.18;;;12.90;99.90;;;;;;5054888;28;20055;-37
2022/03/26 10:21:13;;;;;;;20.77;13.93;;;13.00;99.90;;;;;;5062227;28;20051;-37
2022/03/26 10:23:46;;;;;;;23.92;14.32;;;13.00;99.90;;;;;;5057861;28;20388;-34
2022/03/26 10:26:14;;;;;;;19.98;12.57;;;13.10;99.90;;;;;;5053864;28;20059;-37
2022/03/26 10:28:41;;;;;;;15.82;10.07;;;13.20;99.90;;;;;;5053906;28;20548;-34
2022/03/26 10:34:12;;;;;;;11.40;7.22;;;13.30;99.90;;;;;;5060002;28;20561;-36
2022/03/26 10:36:41;;;;;;;;;;;13.40;99.90;;;;;;5046339;28;20032;-36
2022/03/26 10:39:28;;;;;;;11.43;6.97;;;13.40;99.90;;;;;;5059467;28;20471;-35
2022/03/26 10:41:57;;;;;;;11.23;7.35;;;13.40;99.90;;;;;;5060838;28;20475;-35
2022/03/26 10:44:30;;;;;;;10.80;5.60;;;13.50;99.90;;;;;;5058222;28;20514;-37
2022/03/26 10:46:58;;;;;;;12.93;6.97;;;13.60;99.90;;;;;;5048347;28;20055;-34
2022/03/26 10:49:29;;;;;;;12.35;7.45;;;13.70;99.90;;;;;;5061499;28;20167;-36
2022/03/26 10:51:57;;;;;;;11.68;7.68;;;13.80;99.90;;;;;;5060083;28;20044;-35
2022/03/26 10:54:31;;;;;;;12.30;6.80;;;13.80;99.90;;;;;;5032968;28;20045;-36
2022/03/26 10:56:58;;;;;;;9.65;6.45;;;13.90;99.90;;;;;;5046802;28;20044;-34
2022/03/26 10:59:25;;;;;;;10.48;6.63;;;13.90;99.90;;;;;;5065109;28;20101;-33
2022/03/26 11:01:51;;;;;;;11.45;7.13;;;14.00;99.90;;;;;;5064065;28;20039;-36
2022/03/26 11:04:18;;;;;;;12.55;7.38;;;14.00;99.90;;;;;;5062145;28;20053;-34
2022/03/26 11:06:45;;;;;;;10.68;6.88;;;14.10;99.90;;;;;;5046553;28;20040;-36
2022/03/26 11:09:11;;;;;;;10.80;7.00;;;14.10;99.90;;;;;;5065426;28;20093;-35
2022/03/26 11:11:37;;;;;;;12.05;6.95;;;14.10;99.90;;;;;;5063246;28;20408;-34
2022/03/26 11:14:25;;;;;;;11.90;7.03;;;14.20;99.90;;;;;;5065755;28;20509;-35
2022/03/26 11:17:02;;;;;;;11.45;6.32;;;14.20;99.90;;;;;;5049318;28;20541;-34
2022/03/26 11:19:37;;;;;;;11.02;5.82;;;14.20;99.90;;;;;;5064750;28;20127;-35
2022/03/26 11:22:25;;;;;;;6.63;4.53;;;14.30;99.90;;;;;;5042615;28;20052;-32
2022/03/26 11:25:12;;;;;;;6.43;4.43;;;14.30;99.90;;;;;;5066656;28;20079;-34
2022/03/26 11:28:20;;;;;;;6.43;3.67;;;14.30;99.90;;;;;;5052545;28;20049;-35
2022/03/26 11:31:00;;;;;;;5.35;3.72;;;14.40;99.90;;;;;;5065025;28;20119;-32
2022/03/26 11:33:33;;;;;;;4.90;3.25;;;14.40;99.90;;;;;;5064530;28;20135;-34
2022/03/26 11:36:01;;;;;;;6.75;3.40;;;14.50;99.90;;;;;;5066205;28;20048;-33
2022/03/26 11:38:29;;;;;;;6.75;3.45;;;14.50;99.90;;;;;;5051042;28;20523;-35
2022/03/26 11:41:32;;;;;;;7.97;2.95;;;14.50;99.90;;;;;;5069371;28;20051;-34
2022/03/26 11:43:58;;;;;;;7.15;4.00;;;14.60;99.90;;;;;;5067520;28;20041;-35
2022/03/26 11:52:30;;;;;;;5.78;4.18;;;14.80;99.90;;;;;;5059192;28;20059;-31
2022/03/26 11:54:59;;;;;;;6.88;4.68;;;14.80;99.90;;;;;;5069969;28;20045;-32
2022/03/26 11:57:26;;;;;;;7.13;4.30;;;14.90;99.90;;;;;;5052921;28;20048;-35
2022/03/26 11:59:52;;;;;;;7.22;5.18;;;14.90;99.90;;;;;;5069453;28;20123;-35
2022/03/26 12:02:25;;;;;;;7.95;5.25;;;15.00;99.90;;;;;;5062641;28;20044;-32
2022/03/26 12:04:53;;;;;;;9.35;6.10;;;15.10;99.90;;;;;;5066840;28;20044;-35
2022/03/26 12:07:21;;;;;;;8.60;6.40;;;15.20;99.90;;;;;;5047795;28;20044;-35
2022/03/26 12:10:02;;;;;;;9.45;5.63;;;15.20;99.90;;;;;;5069255;28;20079;-32
2022/03/26 12:12:48;;;;;;;9.45;5.68;;;15.30;99.90;;;;;;5067394;28;20075;-31
2022/03/26 12:15:13;;;;;;;9.65;5.75;;;15.30;99.90;;;;;;5066927;28;20060;-32
2022/03/26 12:17:53;;;;;;;10.68;5.88;;;15.40;99.90;;;;;;5047784;28;20102;-34
2022/03/26 12:20:23;;;;;;;8.80;5.22;;;15.50;99.90;;;;;;5064877;28;20049;-32
2022/03/26 12:23:03;;;;;;;6.68;5.05;;;15.50;99.90;;;;;;5065051;28;20135;-35
2022/03/26 12:25:47;;;;;;;7.53;4.85;;;15.60;99.90;;;;;;5066279;28;20052;-31
2022/03/26 12:28:36;;;;;;;7.43;4.63;;;15.60;99.90;;;;;;5052231;28;20045;-34
2022/03/26 12:31:08;;;;;;;7.47;4.68;;;15.60;99.90;;;;;;5066987;28;20137;-36
2022/03/26 12:33:48;;;;;;;7.43;4.10;;;15.60;99.90;;;;;;5067724;28;20490;-35
2022/03/26 12:36:16;;;;;;;9.50;4.85;;;15.60;99.90;;;;;;5058503;28;20057;-35
2022/03/26 12:38:46;;;;;;;9.25;4.40;;;15.60;99.90;;;;;;5063105;28;20122;-34
2022/03/26 12:41:14;;;;;;;6.83;4.37;;;15.50;99.90;;;;;;5067438;28;20052;-34